Time;durP1;ratioP1;P1;durP2;ratioP2;P2;SDS_P1;SDS_P2;PMS_P1;PMS_P2;Temp;Humidity;BMP_temperature;BMP_pressure;BME280_temperature;BME280_humidity;BME280_pressure;Samples;Min_cycle;Max_cycle;Signal;HPM_P1;HPM_P2
2023/03/29 00:01:05;;;;;;;0.30;0.30;;;;;;;;;;5133904;27;20450;-69
2023/03/29 00:03:33;;;;;;;0.50;0.50;;;;;;;;;;5129414;27;20841;-69
2023/03/29 00:06:04;;;;;;;0.30;0.30;;;;;;;;;;5095516;27;20414;-69
2023/03/29 00:08:36;;;;;;;0.50;0.50;;;;;;;;;;5091404;28;20475;-69
2023/03/29 00:11:04;;;;;;;0.35;0.35;;;;;;;;;;5091999;28;20430;-69
2023/03/29 00:13:31;;;;;;;0.30;0.30;;;;;;;;;;5092573;28;20421;-69
2023/03/29 00:15:58;;;;;;;0.22;0.22;;;;;;;;;;5092250;28;20509;-69
2023/03/29 00:18:25;;;;;;;0.33;0.33;;;;;;;;;;5091595;28;20426;-69
2023/03/29 00:20:56;;;;;;;0.20;0.20;;;;;;;;;;5092426;28;20524;-69
2023/03/29 00:23:24;;;;;;;0.20;0.20;;;;;;;;;;5112822;27;20511;-69
2023/03/29 00:25:54;;;;;;;0.30;0.30;;;;;;;;;;5105163;28;20954;-68
2023/03/29 00:28:22;;;;;;;0.15;0.15;;;;;;;;;;5116227;27;20432;-68
2023/03/29 00:30:51;;;;;;;0.10;0.10;;;;;;;;;;5109980;27;20424;-69
2023/03/29 00:33:19;;;;;;;0.60;0.60;;;;;;;;;;5092400;28;20428;-68
2023/03/29 00:35:47;;;;;;;0.40;0.40;;;;;;;;;;5091659;28;20425;-68
2023/03/29 00:38:15;;;;;;;0.47;0.47;;;;;;;;;;5090732;28;20468;-68
2023/03/29 00:40:43;;;;;;;0.32;0.32;;;;;;;;;;5091322;28;20438;-68
2023/03/29 00:43:11;;;;;;;0.60;0.40;;;;;;;;;;5090840;28;20443;-68
2023/03/29 00:45:38;;;;;;;0.50;0.38;;;;;;;;;;5091926;28;20432;-68
2023/03/29 00:48:07;;;;;;;0.50;0.50;;;;;;;;;;5091502;28;20516;-68
2023/03/29 00:50:38;;;;;;;0.50;0.50;;;;;;;;;;5090831;28;21057;-68
2023/03/29 00:53:14;;;;;;;0.47;0.40;;;;;;;;;;5091191;28;20525;-68
2023/03/29 00:55:44;;;;;;;0.47;0.47;;;;;;;;;;5091293;28;20432;-68
2023/03/29 00:58:15;;;;;;;0.30;0.30;;;;;;;;;;5091785;28;20440;-68
2023/03/29 01:00:47;;;;;;;0.30;0.30;;;;;;;;;;5092024;28;20428;-68
2023/03/29 01:03:23;;;;;;;3.20;0.70;;;;;;;;;;5090978;28;20444;-68
2023/03/29 01:05:59;;;;;;;0.60;0.60;;;;;;;;;;5091628;28;20434;-68
2023/03/29 01:08:30;;;;;;;0.30;0.30;;;;;;;;;;5091718;28;20509;-68
2023/03/29 01:11:06;;;;;;;0.60;0.50;;;;;;;;;;5091582;28;20430;-68
2023/03/29 01:14:02;;;;;;;0.45;0.45;;;;;;;;;;5090852;28;20448;-67
2023/03/29 01:16:31;;;;;;;0.82;0.82;;;;;;;;;;5090155;28;20525;-68
2023/03/29 01:19:01;;;;;;;0.57;0.57;;;;;;;;;;5091440;28;20499;-68
2023/03/29 01:21:33;;;;;;;0.60;0.60;;;;;;;;;;5091428;28;20434;-68
2023/03/29 01:24:05;;;;;;;0.30;0.30;;;;;;;;;;5094870;28;20435;-68
2023/03/29 01:26:36;;;;;;;1.45;0.40;;;;;;;;;;5092273;28;20467;-68
2023/03/29 01:29:24;;;;;;;0.40;0.40;;;;;;;;;;5111617;27;20523;-68
2023/03/29 01:32:01;;;;;;;0.90;0.50;;;;;;;;;;5111454;28;20454;-68
2023/03/29 01:34:45;;;;;;;0.20;0.20;;;;;;;;;;5109610;28;20422;-68
2023/03/29 01:37:17;;;;;;;0.30;0.30;;;;;;;;;;5111514;28;20548;-68
2023/03/29 01:39:47;;;;;;;0.30;0.30;;;;;;;;;;5106773;28;20443;-68
2023/03/29 01:42:33;;;;;;;0.30;0.30;;;;;;;;;;5090832;28;20884;-68
2023/03/29 01:45:03;;;;;;;0.80;0.55;;;;;;;;;;5089601;28;20430;-68
2023/03/29 01:47:37;;;;;;;0.50;0.50;;;;;;;;;;5106381;28;20424;-68
2023/03/29 01:50:17;;;;;;;0.40;0.40;;;;;;;;;;5111375;28;20511;-68
2023/03/29 01:52:55;;;;;;;0.30;0.30;;;;;;;;;;5094199;28;20437;-68
2023/03/29 01:55:25;;;;;;;0.30;0.30;;;;;;;;;;5089582;28;20422;-68
2023/03/29 01:57:53;;;;;;;1.60;0.50;;;;;;;;;;5090125;28;20453;-68
2023/03/29 02:00:26;;;;;;;0.65;0.40;;;;;;;;;;5090762;28;20425;-68
2023/03/29 02:02:58;;;;;;;1.27;0.68;;;;;;;;;;5089745;28;20433;-68
2023/03/29 02:05:27;;;;;;;0.60;0.60;;;;;;;;;;5089893;28;20884;-68
2023/03/29 02:07:55;;;;;;;0.20;0.20;;;;;;;;;;5088186;28;20450;-68
2023/03/29 02:10:23;;;;;;;0.40;0.30;;;;;;;;;;5090637;28;20513;-68
2023/03/29 02:12:50;;;;;;;0.35;0.35;;;;;;;;;;5090256;28;20418;-68
2023/03/29 02:15:19;;;;;;;0.30;0.30;;;;;;;;;;5089999;28;20831;-67
2023/03/29 02:17:49;;;;;;;0.50;0.50;;;;;;;;;;5090513;28;20433;-68
2023/03/29 02:20:22;;;;;;;0.35;0.35;;;;;;;;;;5090026;28;20430;-67
2023/03/29 02:23:13;;;;;;;0.40;0.40;;;;;;;;;;5090364;28;20432;-68
2023/03/29 02:25:41;;;;;;;0.30;0.30;;;;;;;;;;5088731;28;20429;-68
2023/03/29 02:28:09;;;;;;;0.40;0.40;;;;;;;;;;5089718;28;20552;-68
2023/03/29 02:30:52;;;;;;;0.60;0.60;;;;;;;;;;5090083;28;20418;-68
2023/03/29 02:33:34;;;;;;;0.70;0.70;;;;;;;;;;5090035;28;20487;-69
2023/03/29 02:36:04;;;;;;;0.30;0.30;;;;;;;;;;5089803;28;20432;-68
2023/03/29 02:38:33;;;;;;;0.20;0.20;;;;;;;;;;5088834;28;20525;-68
2023/03/29 02:41:01;;;;;;;0.50;0.50;;;;;;;;;;5089909;28;20448;-68
2023/03/29 02:43:29;;;;;;;0.60;0.60;;;;;;;;;;5088880;28;20512;-68
2023/03/29 02:45:59;;;;;;;0.60;0.60;;;;;;;;;;5088727;28;20433;-68
2023/03/29 02:48:27;;;;;;;0.40;0.40;;;;;;;;;;5090057;28;20426;-68
2023/03/29 02:50:55;;;;;;;0.50;0.50;;;;;;;;;;5088734;28;20516;-68
2023/03/29 02:53:30;;;;;;;0.40;0.40;;;;;;;;;;5089914;28;20897;-68
2023/03/29 02:56:01;;;;;;;0.43;0.43;;;;;;;;;;5089063;28;20418;-68
2023/03/29 02:58:30;;;;;;;0.55;0.55;;;;;;;;;;5089852;28;20417;-68
2023/03/29 03:01:00;;;;;;;0.60;0.60;;;;;;;;;;5089645;28;20461;-68
2023/03/29 03:03:27;;;;;;;0.97;0.90;;;;;;;;;;5089778;28;20428;-69
2023/03/29 03:05:55;;;;;;;0.70;0.40;;;;;;;;;;5091951;28;20430;-68
2023/03/29 03:08:22;;;;;;;0.45;0.40;;;;;;;;;;5093018;28;20516;-68
2023/03/29 03:10:49;;;;;;;0.30;0.30;;;;;;;;;;5094363;28;20453;-68
2023/03/29 03:13:16;;;;;;;1.30;0.40;;;;;;;;;;5093040;28;20496;-68
2023/03/29 03:15:47;;;;;;;1.23;0.50;;;;;;;;;;5093600;28;20426;-69
2023/03/29 03:18:15;;;;;;;0.60;0.50;;;;;;;;;;5093953;28;20438;-69
2023/03/29 03:20:45;;;;;;;0.75;0.75;;;;;;;;;;5093757;28;20425;-69
2023/03/29 03:23:13;;;;;;;0.30;0.30;;;;;;;;;;5093604;28;20436;-69
2023/03/29 03:25:40;;;;;;;0.50;0.50;;;;;;;;;;5093707;28;20453;-69
2023/03/29 03:28:07;;;;;;;0.50;0.50;;;;;;;;;;5092096;28;20428;-69
2023/03/29 03:30:34;;;;;;;0.80;0.65;;;;;;;;;;5093615;28;20471;-69
2023/03/29 03:33:04;;;;;;;0.85;0.55;;;;;;;;;;5092851;28;20428;-69
2023/03/29 03:35:31;;;;;;;0.52;0.52;;;;;;;;;;5091470;28;20833;-69
2023/03/29 03:38:01;;;;;;;0.75;0.45;;;;;;;;;;5093342;28;20421;-69
2023/03/29 03:40:29;;;;;;;1.20;0.80;;;;;;;;;;5093457;28;20478;-69
2023/03/29 03:42:56;;;;;;;0.80;0.60;;;;;;;;;;5093726;28;20441;-69
2023/03/29 03:45:23;;;;;;;0.50;0.50;;;;;;;;;;5113272;28;20423;-69
2023/03/29 03:47:50;;;;;;;0.40;0.40;;;;;;;;;;5108138;28;20429;-69
2023/03/29 03:50:18;;;;;;;0.40;0.40;;;;;;;;;;5093124;28;20530;-69
2023/03/29 03:52:45;;;;;;;0.47;0.47;;;;;;;;;;5093292;28;20486;-69
2023/03/29 03:55:13;;;;;;;0.55;0.50;;;;;;;;;;5092903;28;20421;-69
2023/03/29 03:57:40;;;;;;;0.50;0.50;;;;;;;;;;5093204;28;20444;-69
2023/03/29 04:00:17;;;;;;;0.50;0.50;;;;;;;;;;5092971;28;20430;-69
2023/03/29 04:02:46;;;;;;;0.30;0.30;;;;;;;;;;5092737;28;20433;-69
2023/03/29 04:05:14;;;;;;;0.30;0.30;;;;;;;;;;5092456;28;20430;-69
2023/03/29 04:07:41;;;;;;;0.20;0.20;;;;;;;;;;5092893;28;20445;-69
2023/03/29 04:10:09;;;;;;;0.30;0.30;;;;;;;;;;5103417;28;20590;-69
2023/03/29 04:12:37;;;;;;;0.17;0.17;;;;;;;;;;5111755;28;20473;-69
2023/03/29 04:15:09;;;;;;;3.60;0.50;;;;;;;;;;5112493;28;20958;-69
2023/03/29 04:17:36;;;;;;;0.68;0.68;;;;;;;;;;5112140;28;20480;-69
2023/03/29 04:20:10;;;;;;;0.65;0.65;;;;;;;;;;5092336;28;20860;-69
2023/03/29 04:22:38;;;;;;;1.02;0.40;;;;;;;;;;5092668;28;20425;-69
2023/03/29 04:25:07;;;;;;;0.60;0.60;;;;;;;;;;5092264;28;20792;-69
2023/03/29 04:27:37;;;;;;;0.40;0.40;;;;;;;;;;5091028;28;20475;-69
2023/03/29 04:30:06;;;;;;;0.40;0.40;;;;;;;;;;5091478;28;20469;-69
2023/03/29 04:32:33;;;;;;;0.50;0.50;;;;;;;;;;5092466;28;20429;-69
2023/03/29 04:35:01;;;;;;;0.98;0.85;;;;;;;;;;5091348;28;20936;-69
2023/03/29 04:37:28;;;;;;;1.17;1.13;;;;;;;;;;5091380;28;20449;-69
2023/03/29 04:39:56;;;;;;;1.20;0.80;;;;;;;;;;5092301;28;20432;-69
2023/03/29 04:42:23;;;;;;;0.50;0.45;;;;;;;;;;5092278;28;20425;-69
2023/03/29 04:44:50;;;;;;;0.57;0.40;;;;;;;;;;5090867;28;20432;-69
2023/03/29 04:47:18;;;;;;;0.40;0.40;;;;;;;;;;5092260;28;20426;-69
2023/03/29 04:49:45;;;;;;;0.30;0.30;;;;;;;;;;5091855;28;20434;-69
2023/03/29 04:52:13;;;;;;;0.20;0.20;;;;;;;;;;5091481;28;20919;-69
2023/03/29 04:54:40;;;;;;;0.40;0.40;;;;;;;;;;5091308;28;20424;-69
2023/03/29 04:57:07;;;;;;;0.50;0.50;;;;;;;;;;5090166;28;20866;-69
2023/03/29 04:59:35;;;;;;;0.40;0.40;;;;;;;;;;5091538;28;20436;-69
2023/03/29 05:02:03;;;;;;;0.57;0.57;;;;;;;;;;5090517;28;20903;-69
2023/03/29 05:04:34;;;;;;;0.50;0.50;;;;;;;;;;5091141;28;20792;-69
2023/03/29 05:07:02;;;;;;;0.52;0.52;;;;;;;;;;5091473;28;20425;-68
2023/03/29 05:09:29;;;;;;;0.60;0.60;;;;;;;;;;5090194;28;20430;-68
2023/03/29 05:11:59;;;;;;;0.30;0.30;;;;;;;;;;5091487;28;20934;-68
2023/03/29 05:14:26;;;;;;;0.50;0.50;;;;;;;;;;5091161;28;20550;-68
2023/03/29 05:16:55;;;;;;;0.30;0.30;;;;;;;;;;5091679;28;20424;-68
2023/03/29 05:19:24;;;;;;;0.40;0.40;;;;;;;;;;5097513;28;20460;-68
2023/03/29 05:21:51;;;;;;;0.40;0.40;;;;;;;;;;5110276;28;20435;-68
2023/03/29 05:24:20;;;;;;;0.40;0.40;;;;;;;;;;5109254;28;21081;-68
2023/03/29 05:26:50;;;;;;;0.30;0.30;;;;;;;;;;5101633;27;20430;-68
2023/03/29 05:29:18;;;;;;;0.70;0.50;;;;;;;;;;5119333;27;20515;-68
2023/03/29 05:31:52;;;;;;;0.60;0.60;;;;;;;;;;5091290;28;20440;-68
2023/03/29 05:34:20;;;;;;;0.40;0.40;;;;;;;;;;5090301;28;20434;-69
2023/03/29 05:36:47;;;;;;;0.80;0.60;;;;;;;;;;5091484;28;20422;-69
2023/03/29 05:39:15;;;;;;;0.38;0.38;;;;;;;;;;5090464;28;20457;-68
2023/03/29 05:41:42;;;;;;;0.57;0.57;;;;;;;;;;5099792;28;20430;-68
2023/03/29 05:44:09;;;;;;;0.40;0.40;;;;;;;;;;5110983;28;20417;-69
2023/03/29 05:46:42;;;;;;;0.57;0.57;;;;;;;;;;5091735;28;20550;-68
2023/03/29 05:49:11;;;;;;;0.47;0.47;;;;;;;;;;5089666;28;20554;-69
2023/03/29 05:51:40;;;;;;;0.40;0.40;;;;;;;;;;5090982;28;20425;-68
2023/03/29 05:54:10;;;;;;;0.50;0.50;;;;;;;;;;5089378;28;20471;-69
2023/03/29 05:56:40;;;;;;;0.80;0.80;;;;;;;;;;5089682;28;20432;-68
2023/03/29 05:59:07;;;;;;;0.55;0.55;;;;;;;;;;5090439;28;20436;-68
2023/03/29 06:01:35;;;;;;;0.93;0.93;;;;;;;;;;5090442;28;20440;-69
2023/03/29 06:04:02;;;;;;;0.53;0.53;;;;;;;;;;5108861;28;20424;-68
2023/03/29 06:06:30;;;;;;;0.70;0.70;;;;;;;;;;5109771;28;20519;-68
2023/03/29 06:08:58;;;;;;;0.40;0.40;;;;;;;;;;5111145;28;20424;-69
2023/03/29 06:11:25;;;;;;;0.85;0.82;;;;;;;;;;5108415;28;20881;-68
2023/03/29 06:13:52;;;;;;;0.50;0.50;;;;;;;;;;5089765;28;20425;-69
2023/03/29 06:16:19;;;;;;;1.30;0.40;;;;;;;;;;5098965;27;20424;-68
2023/03/29 06:18:46;;;;;;;0.68;0.68;;;;;;;;;;5115040;27;20422;-68
2023/03/29 06:21:14;;;;;;;1.10;0.88;;;;;;;;;;5090278;28;20792;-68
2023/03/29 06:23:41;;;;;;;2.40;0.85;;;;;;;;;;5090275;28;20474;-69
2023/03/29 06:26:11;;;;;;;0.93;0.70;;;;;;;;;;5093206;28;20428;-69
2023/03/29 06:28:40;;;;;;;0.55;0.55;;;;;;;;;;5110119;28;20464;-74
2023/03/29 06:31:08;;;;;;;1.80;0.70;;;;;;;;;;5108719;28;20424;-68
2023/03/29 06:33:37;;;;;;;0.50;0.50;;;;;;;;;;5091230;28;20792;-68
2023/03/29 06:36:07;;;;;;;1.02;0.98;;;;;;;;;;5089702;28;20422;-68
2023/03/29 06:38:35;;;;;;;0.50;0.50;;;;;;;;;;5089892;28;20426;-68
2023/03/29 06:41:05;;;;;;;0.50;0.40;;;;;;;;;;5105248;28;20485;-68
2023/03/29 06:43:33;;;;;;;0.75;0.75;;;;;;;;;;5110292;28;20432;-68
2023/03/29 06:48:56;;;;;;;0.90;0.75;;;;;;;;;;5087016;28;20499;-70
2023/03/29 06:51:26;;;;;;;0.45;0.45;;;;;;;;;;5085241;28;20430;-69
2023/03/29 06:53:59;;;;;;;1.30;0.50;;;;;;;;;;5086568;28;20472;-75
2023/03/29 06:56:40;;;;;;;0.77;0.77;;;;;;;;;;5082510;28;20458;-69
2023/03/29 06:59:08;;;;;;;1.77;1.02;;;;;;;;;;5086968;28;20520;-69
2023/03/29 07:01:36;;;;;;;0.70;0.70;;;;;;;;;;5086669;28;20428;-69
2023/03/29 07:04:06;;;;;;;0.60;0.60;;;;;;;;;;5072747;28;21169;-70
2023/03/29 07:06:37;;;;;;;1.80;0.40;;;;;;;;;;5050194;28;20451;-69
2023/03/29 07:09:07;;;;;;;0.65;0.65;;;;;;;;;;5066817;28;20427;-69
2023/03/29 07:11:35;;;;;;;0.82;0.82;;;;;;;;;;5066516;28;20431;-69
2023/03/29 07:14:02;;;;;;;1.67;1.08;;;;;;;;;;5049261;28;20997;-69
2023/03/29 07:16:31;;;;;;;0.30;0.30;;;;;;;;;;5071494;28;20432;-69
2023/03/29 07:18:59;;;;;;;1.40;0.70;;;;;;;;;;5086988;28;20536;-69
2023/03/29 07:21:27;;;;;;;0.40;0.40;;;;;;;;;;5071730;28;20458;-69
2023/03/29 07:23:54;;;;;;;0.30;0.30;;;;;;;;;;5065987;28;20435;-70
2023/03/29 07:26:21;;;;;;;0.57;0.40;;;;;;;;;;5080078;28;20490;-67
2023/03/29 07:28:56;;;;;;;0.75;0.70;;;;;;;;;;5089096;28;20483;-68
2023/03/29 07:31:23;;;;;;;0.60;0.60;;;;;;;;;;5088100;28;20434;-67
2023/03/29 07:33:52;;;;;;;0.43;0.43;;;;;;;;;;5089089;28;20504;-67
2023/03/29 07:36:27;;;;;;;0.55;0.55;;;;;;;;;;5089499;28;20428;-67
2023/03/29 07:38:55;;;;;;;0.52;0.52;;;;;;;;;;5088133;28;20514;-69
2023/03/29 07:41:26;;;;;;;0.50;0.50;;;;;;;;;;5089184;28;20458;-70
2023/03/29 07:43:53;;;;;;;0.50;0.50;;;;;;;;;;5089256;28;20422;-70
2023/03/29 07:46:20;;;;;;;0.50;0.50;;;;;;;;;;5089376;28;20976;-70
2023/03/29 07:48:49;;;;;;;1.50;0.75;;;;;;;;;;5088678;28;20437;-70
2023/03/29 07:51:16;;;;;;;1.85;0.60;;;;;;;;;;5090232;28;20426;-70
2023/03/29 07:53:43;;;;;;;1.20;0.63;;;;;;;;;;5091957;28;20428;-69
2023/03/29 07:56:10;;;;;;;0.52;0.52;;;;;;;;;;5093010;28;20425;-70
2023/03/29 07:58:43;;;;;;;0.43;0.43;;;;;;;;;;5093139;28;20921;-69
2023/03/29 08:01:14;;;;;;;1.38;0.88;;;;;;;;;;5093003;28;20927;-70
2023/03/29 08:03:45;;;;;;;0.73;0.55;;;;;;;;;;5096213;28;20912;-67
2023/03/29 08:06:12;;;;;;;0.47;0.47;;;;;;;;;;5092694;28;20422;-67
2023/03/29 08:08:39;;;;;;;0.80;0.80;;;;;;;;;;5093013;28;20788;-67
2023/03/29 08:11:08;;;;;;;1.50;0.60;;;;;;;;;;5092381;28;20433;-67
2023/03/29 08:13:36;;;;;;;0.73;0.57;;;;;;;;;;5090745;28;20424;-68
2023/03/29 08:16:04;;;;;;;1.80;0.68;;;;;;;;;;5092128;28;20509;-68
2023/03/29 08:18:31;;;;;;;1.20;0.50;;;;;;;;;;5092783;28;20426;-68
2023/03/29 08:21:01;;;;;;;0.63;0.63;;;;;;;;;;5092248;28;20429;-68
2023/03/29 08:23:28;;;;;;;1.90;0.50;;;;;;;;;;5092396;28;20448;-68
2023/03/29 08:25:55;;;;;;;0.90;0.90;;;;;;;;;;5092061;28;20912;-68
2023/03/29 08:28:25;;;;;;;0.60;0.60;;;;;;;;;;5092274;28;20900;-68
2023/03/29 08:30:53;;;;;;;0.38;0.38;;;;;;;;;;5092402;28;20437;-68
2023/03/29 08:33:20;;;;;;;0.30;0.30;;;;;;;;;;5091112;28;20550;-68
2023/03/29 08:35:48;;;;;;;0.60;0.60;;;;;;;;;;5091740;28;20418;-69
2023/03/29 08:38:15;;;;;;;0.40;0.40;;;;;;;;;;5110417;27;20423;-68
2023/03/29 08:40:42;;;;;;;1.50;0.60;;;;;;;;;;5114371;27;20433;-68
2023/03/29 08:43:15;;;;;;;0.73;0.73;;;;;;;;;;5092144;28;20479;-68
2023/03/29 08:45:48;;;;;;;0.60;0.60;;;;;;;;;;5091646;28;20426;-68
2023/03/29 08:48:25;;;;;;;1.10;0.63;;;;;;;;;;5092209;28;20465;-68
2023/03/29 08:50:59;;;;;;;0.60;0.52;;;;;;;;;;5091898;28;20975;-68
2023/03/29 08:53:28;;;;;;;0.90;0.65;;;;;;;;;;5107924;28;20986;-68
2023/03/29 08:55:57;;;;;;;1.08;0.65;;;;;;;;;;5110495;28;20969;-68
2023/03/29 08:58:27;;;;;;;2.30;1.03;;;;;;;;;;5109521;28;20455;-69
2023/03/29 09:00:56;;;;;;;0.88;0.82;;;;;;;;;;5092010;28;20422;-68
2023/03/29 09:03:24;;;;;;;0.52;0.52;;;;;;;;;;5097312;28;20416;-68
2023/03/29 09:05:57;;;;;;;0.43;0.43;;;;;;;;;;5111542;28;20416;-69
2023/03/29 09:08:25;;;;;;;0.60;0.60;;;;;;;;;;5101274;28;20977;-68
2023/03/29 09:11:11;;;;;;;0.40;0.40;;;;;;;;;;5090071;28;20429;-68
2023/03/29 09:13:57;;;;;;;2.95;0.80;;;;;;;;;;5091310;28;20856;-68
2023/03/29 09:16:45;;;;;;;3.00;0.77;;;;;;;;;;5091239;28;20425;-68
2023/03/29 09:19:12;;;;;;;1.10;0.50;;;;;;;;;;5079645;28;20471;-68
2023/03/29 09:22:03;;;;;;;0.98;0.63;;;;;;;;;;5091615;28;20529;-68
2023/03/29 09:24:33;;;;;;;0.85;0.75;;;;;;;;;;5090883;28;20470;-68
2023/03/29 09:27:20;;;;;;;0.70;0.70;;;;;;;;;;5089900;28;20421;-68
2023/03/29 09:30:06;;;;;;;1.55;0.80;;;;;;;;;;5090841;28;20563;-68
2023/03/29 09:32:38;;;;;;;1.35;1.00;;;;;;;;;;5091174;28;20900;-68
2023/03/29 09:35:17;;;;;;;1.50;0.98;;;;;;;;;;5090896;28;20430;-68
2023/03/29 09:37:44;;;;;;;0.82;0.70;;;;;;;;;;5091055;28;20449;-68
2023/03/29 09:40:18;;;;;;;0.63;0.63;;;;;;;;;;5090863;28;20499;-68
2023/03/29 09:42:47;;;;;;;0.70;0.70;;;;;;;;;;5091170;28;20430;-68
2023/03/29 09:45:14;;;;;;;0.63;0.63;;;;;;;;;;5115762;27;20435;-68
2023/03/29 09:47:44;;;;;;;0.85;0.85;;;;;;;;;;5111351;28;20818;-68
2023/03/29 09:50:18;;;;;;;0.75;0.75;;;;;;;;;;5109939;28;20424;-68
2023/03/29 09:52:57;;;;;;;0.65;0.65;;;;;;;;;;5110586;28;20424;-68
2023/03/29 09:55:29;;;;;;;0.70;0.70;;;;;;;;;;5108768;28;20518;-68
2023/03/29 09:58:00;;;;;;;0.70;0.70;;;;;;;;;;5090873;28;20429;-69
2023/03/29 10:00:28;;;;;;;2.20;0.60;;;;;;;;;;5090739;28;20448;-68
2023/03/29 10:02:58;;;;;;;1.05;0.98;;;;;;;;;;5100064;28;20425;-68
2023/03/29 10:05:36;;;;;;;0.80;0.80;;;;;;;;;;5110661;28;20420;-68
2023/03/29 10:08:13;;;;;;;0.50;0.50;;;;;;;;;;5110492;28;20426;-68
2023/03/29 10:10:40;;;;;;;1.00;1.00;;;;;;;;;;5108798;28;20420;-68
2023/03/29 10:13:11;;;;;;;2.40;0.70;;;;;;;;;;5093941;28;20896;-68
2023/03/29 10:15:44;;;;;;;0.97;0.87;;;;;;;;;;5088827;28;20458;-68
2023/03/29 10:18:13;;;;;;;7.63;1.17;;;;;;;;;;5090137;28;20424;-68
2023/03/29 10:20:40;;;;;;;0.68;0.68;;;;;;;;;;5089982;28;20900;-68
2023/03/29 10:23:08;;;;;;;0.52;0.52;;;;;;;;;;5090321;28;20432;-68
2023/03/29 10:25:39;;;;;;;1.17;0.80;;;;;;;;;;5088353;28;21156;-68
2023/03/29 10:28:15;;;;;;;1.00;0.40;;;;;;;;;;5089574;28;20430;-68
2023/03/29 10:30:44;;;;;;;1.83;0.90;;;;;;;;;;5089878;28;20426;-68
2023/03/29 10:33:19;;;;;;;1.33;0.67;;;;;;;;;;5088746;28;20447;-68
2023/03/29 10:35:54;;;;;;;2.17;1.05;;;12.90;99.90;;;;;;5089673;28;20434;-68
2023/03/29 10:38:23;;;;;;;1.17;0.70;;;15.40;99.90;;;;;;5089481;28;20471;-68
2023/03/29 10:40:52;;;;;;;0.70;0.70;;;15.30;99.90;;;;;;5097674;28;20449;-68
2023/03/29 10:43:25;;;;;;;0.98;0.98;;;15.50;99.90;;;;;;5110394;28;20420;-68
2023/03/29 10:46:03;;;;;;;0.80;0.80;;;15.70;99.90;;;;;;5108246;28;20822;-69
2023/03/29 10:48:33;;;;;;;1.13;1.00;;;15.20;99.90;;;;;;5088403;28;20931;-68
2023/03/29 10:51:01;;;;;;;1.08;0.82;;;15.30;99.90;;;;;;5089570;28;20430;-68
2023/03/29 10:53:31;;;;;;;0.75;0.75;;;15.80;99.90;;;;;;5089720;28;20426;-68
2023/03/29 10:56:06;;;;;;;0.55;0.55;;;15.90;99.90;;;;;;5088311;28;20432;-68
2023/03/29 10:58:52;;;;;;;0.73;0.63;;;;;;;;;;5088702;28;20422;-68
2023/03/29 11:01:27;;;;;;;1.20;0.83;;;;;;;;;;5097400;28;20432;-68
2023/03/29 11:04:01;;;;;;;0.80;0.63;;;;;;;;;;5108393;28;20483;-68
2023/03/29 11:06:34;;;;;;;0.52;0.52;;;;;;;;;;5110283;28;20427;-69
2023/03/29 11:09:06;;;;;;;0.77;0.77;;;;;;;;;;5109785;28;20890;-68
2023/03/29 11:12:02;;;;;;;0.82;0.80;;;16.30;99.90;;;;;;5096190;28;20603;-69
2023/03/29 11:15:00;;;;;;;1.73;1.02;;;17.20;99.90;;;;;;5089143;28;20434;-69
2023/03/29 11:17:49;;;;;;;1.50;0.90;;;;;;;;;;5088651;28;20433;-69
2023/03/29 11:20:17;;;;;;;0.65;0.65;;;;;;;;;;5089615;28;20425;-69
2023/03/29 11:23:06;;;;;;;1.92;0.95;;;;;;;;;;5089657;28;20422;-69
2023/03/29 11:25:44;;;;;;;1.05;0.95;;;;;;;;;;5089099;28;20440;-69
2023/03/29 11:28:18;;;;;;;0.85;0.77;;;;;;;;;;5092878;28;20432;-68
2023/03/29 11:31:11;;;;;;;1.10;0.80;;;;;;;;;;5093731;28;20426;-68
2023/03/29 11:33:53;;;;;;;1.10;0.70;;;;;;;;;;5092934;28;20425;-69
2023/03/29 11:36:44;;;;;;;1.90;0.70;;;17.20;99.90;;;;;;5093317;28;20425;-68
2023/03/29 11:39:11;;;;;;;1.63;1.00;;;17.90;99.90;;;;;;5091273;28;22782;-68
2023/03/29 11:41:50;;;;;;;1.98;0.82;;;17.60;99.90;;;;;;5092299;28;20517;-68
2023/03/29 11:44:28;;;;;;;0.73;0.73;;;17.50;99.90;;;;;;5093138;28;20457;-69
2023/03/29 11:46:59;;;;;;;0.95;0.85;;;;;;;;;;5093088;28;20841;-69
2023/03/29 11:49:33;;;;;;;1.08;0.70;;;;;;;;;;5108291;28;21096;-69
2023/03/29 11:52:16;;;;;;;0.80;0.80;;;;;;;;;;5113644;28;20423;-69
2023/03/29 11:54:47;;;;;;;0.63;0.63;;;;;;;;;;5113096;28;20446;-69
2023/03/29 11:57:31;;;;;;;1.13;0.80;;;;;;;;;;5113232;28;21036;-68
2023/03/29 12:00:14;;;;;;;0.50;0.50;;;;;;;;;;5113550;28;20450;-69
2023/03/29 12:02:48;;;;;;;0.50;0.50;;;;;;;;;;5113184;28;20427;-69
2023/03/29 12:05:20;;;;;;;1.40;0.80;;;;;;;;;;5097912;28;20478;-69
2023/03/29 12:08:00;;;;;;;0.60;0.55;;;;;;;;;;5092720;28;20428;-68
2023/03/29 12:10:56;;;;;;;0.60;0.60;;;;;;;;;;5092919;28;20437;-69
2023/03/29 12:13:25;;;;;;;0.90;0.90;;;;;;;;;;5083366;28;21022;-68
2023/03/29 12:16:01;;;;;;;0.65;0.65;;;17.80;99.90;;;;;;5092330;28;20425;-68
2023/03/29 12:18:41;;;;;;;0.70;0.70;;;;;;;;;;5092484;28;20461;-68
2023/03/29 12:21:11;;;;;;;1.50;0.60;;;;;;;;;;5092503;28;20426;-68
2023/03/29 12:23:40;;;;;;;0.68;0.68;;;;;;;;;;5092382;28;20460;-68
2023/03/29 12:26:15;;;;;;;1.80;0.88;;;;;;;;;;5092406;28;20422;-69
2023/03/29 12:28:49;;;;;;;2.67;0.93;;;;;;;;;;5091195;28;20422;-69
2023/03/29 12:31:18;;;;;;;0.60;0.60;;;;;;;;;;5092334;28;20425;-68
2023/03/29 12:33:56;;;;;;;0.70;0.60;;;;;;;;;;5092044;28;20422;-69
2023/03/29 12:36:53;;;;;;;1.00;0.83;;;16.40;99.90;;;;;;5091263;28;20512;-68
2023/03/29 12:39:21;;;;;;;0.68;0.57;;;;;;;;;;5090889;28;20915;-69
2023/03/29 12:41:50;;;;;;;0.70;0.70;;;;;;;;;;5107624;28;20459;-68
2023/03/29 12:44:20;;;;;;;1.35;1.02;;;;;;;;;;5112217;28;20431;-69
2023/03/29 12:46:54;;;;;;;1.45;0.70;;;;;;;;;;5112551;28;20776;-68
2023/03/29 12:49:24;;;;;;;0.83;0.70;;;;;;;;;;5112402;28;20424;-68
2023/03/29 12:51:56;;;;;;;1.60;0.47;;;;;;;;;;5109080;28;20428;-68
2023/03/29 12:54:24;;;;;;;1.10;0.73;;;;;;;;;;5100192;28;20867;-68
2023/03/29 12:57:12;;;;;;;0.80;0.80;;;;;;;;;;5112333;28;20820;-68
2023/03/29 12:59:43;;;;;;;0.88;0.70;;;;;;;;;;5109862;28;20798;-68
2023/03/29 13:02:14;;;;;;;1.00;0.98;;;;;;;;;;5091009;28;20426;-68
2023/03/29 13:04:42;;;;;;;0.60;0.60;;;;;;;;;;5091448;28;20520;-68
2023/03/29 13:07:26;;;;;;;1.38;0.98;;;15.40;99.90;;;;;;5091533;28;20426;-68
2023/03/29 13:10:02;;;;;;;1.05;1.00;;;;;;;;;;5093642;28;21003;-68
2023/03/29 13:12:36;;;;;;;1.45;0.77;;;;;;;;;;5111729;28;20515;-68
2023/03/29 13:15:20;;;;;;;1.67;0.68;;;;;;;;;;5111748;28;20477;-68
2023/03/29 13:18:07;;;;;;;0.40;0.40;;;;;;;;;;5111693;28;20416;-68
2023/03/29 13:20:46;;;;;;;0.90;0.90;;;;;;;;;;5111381;28;20464;-68
2023/03/29 13:23:31;;;;;;;0.60;0.60;;;;;;;;;;5111777;28;20434;-68
2023/03/29 13:26:18;;;;;;;0.52;0.52;;;;;;;;;;5110103;28;20511;-68
2023/03/29 13:28:47;;;;;;;0.75;0.63;;;;;;;;;;5110339;28;20778;-68
2023/03/29 13:31:42;;;;;;;1.63;0.93;;;;;;;;;;5111604;28;20428;-68
2023/03/29 13:34:34;;;;;;;0.90;0.90;;;;;;;;;;5110258;28;20519;-68
2023/03/29 13:37:33;;;;;;;1.25;0.88;;;;;;;;;;5111260;28;20518;-68
2023/03/29 13:40:00;;;;;;;0.52;0.52;;;;;;;;;;5088073;28;20424;-68
2023/03/29 13:42:34;;;;;;;0.70;0.52;;;;;;;;;;5111376;28;20420;-68
2023/03/29 13:45:14;;;;;;;0.63;0.63;;;;;;;;;;5111101;28;20449;-69
2023/03/29 13:47:43;;;;;;;1.00;1.00;;;;;;;;;;5097598;28;20975;-68
2023/03/29 13:50:39;;;;;;;0.70;0.70;;;;;;;;;;5091025;28;20516;-68
2023/03/29 13:53:20;;;;;;;0.57;0.57;;;;;;;;;;5111123;27;20767;-68
2023/03/29 13:55:52;;;;;;;0.50;0.50;;;;;;;;;;5110620;28;20420;-68
2023/03/29 13:58:38;;;;;;;1.50;0.90;;;;;;;;;;5110869;28;20530;-68
2023/03/29 14:01:16;;;;;;;0.60;0.60;;;;;;;;;;5111053;28;20424;-68
2023/03/29 14:03:45;;;;;;;0.43;0.43;;;;;;;;;;5110887;28;20424;-68
2023/03/29 14:06:14;;;;;;;1.00;0.80;;;;;;;;;;5109233;28;20432;-69
2023/03/29 14:08:43;;;;;;;0.70;0.70;;;;;;;;;;5102461;27;20494;-68
2023/03/29 14:11:21;;;;;;;2.50;0.52;;;;;;;;;;5116843;27;20851;-68
2023/03/29 14:13:51;;;;;;;0.60;0.60;;;;;;;;;;5110811;28;20455;-68
2023/03/29 14:16:19;;;;;;;2.00;0.50;;;;;;;;;;5111067;28;20416;-68
2023/03/29 14:18:50;;;;;;;0.83;0.83;;;16.70;99.90;;;;;;5110807;28;20424;-68
2023/03/29 14:21:20;;;;;;;0.80;0.80;;;;;;;;;;5110424;28;20415;-68
2023/03/29 14:23:53;;;;;;;0.80;0.73;;;;;;;;;;5110440;28;20431;-68
2023/03/29 14:26:21;;;;;;;0.90;0.85;;;;;;;;;;5110118;27;20420;-69
2023/03/29 14:28:55;;;;;;;1.10;0.45;;;;;;;;;;5109916;28;20416;-69
2023/03/29 14:31:29;;;;;;;0.52;0.47;;;;;;;;;;5110249;28;20416;-69
2023/03/29 14:33:57;;;;;;;0.93;0.60;;;;;;;;;;5110386;28;20452;-69
2023/03/29 14:36:26;;;;;;;0.93;0.60;;;;;;;;;;5110685;28;20428;-69
2023/03/29 14:38:58;;;;;;;1.10;1.05;;;;;;;;;;5110498;28;20810;-69
2023/03/29 14:41:29;;;;;;;0.80;0.75;;;;;;;;;;5109381;28;20424;-68
2023/03/29 14:44:01;;;;;;;0.60;0.60;;;;;;;;;;5089730;28;20532;-69
2023/03/29 14:46:29;;;;;;;1.42;0.70;;;;;;;;;;5089979;28;20428;-68
2023/03/29 14:48:56;;;;;;;0.63;0.63;;;;;;;;;;5089765;28;20445;-69
2023/03/29 14:51:29;;;;;;;0.70;0.60;;;;;;;;;;5089920;28;21169;-69
2023/03/29 14:54:00;;;;;;;1.55;0.60;;;;;;;;;;5089590;28;20771;-69
2023/03/29 14:56:31;;;;;;;0.57;0.57;;;;;;;;;;5088588;28;20421;-69
2023/03/29 14:58:59;;;;;;;0.87;0.87;;;;;;;;;;5093954;28;20523;-69
2023/03/29 15:01:26;;;;;;;0.63;0.63;;;;;;;;;;5108636;28;20423;-69
2023/03/29 15:04:03;;;;;;;2.55;0.45;;;;;;;;;;5109571;28;20432;-69
2023/03/29 15:06:30;;;;;;;0.85;0.65;;;;;;;;;;5110241;28;20419;-69